sensor_id;sensor_type;location;lat;lon;timestamp;P1;durP1;ratioP1;P2;durP2;ratioP2
18322;SDS011;9287;49.456;11.064;2023-05-20T00:01:14;2.33;;;2.13;;
18322;SDS011;9287;49.456;11.064;2023-05-20T00:03:45;1.97;;;1.87;;
18322;SDS011;9287;49.456;11.064;2023-05-20T00:06:14;2.93;;;2.00;;
18322;SDS011;9287;49.456;11.064;2023-05-20T00:08:44;2.10;;;1.97;;
18322;SDS011;9287;49.456;11.064;2023-05-20T00:11:15;2.23;;;2.13;;
18322;SDS011;9287;49.456;11.064;2023-05-20T00:13:43;4.33;;;2.20;;
18322;SDS011;9287;49.456;11.064;2023-05-20T00:16:14;2.50;;;2.30;;
18322;SDS011;9287;49.456;11.064;2023-05-20T00:18:42;2.67;;;2.30;;
18322;SDS011;9287;49.456;11.064;2023-05-20T00:21:10;2.77;;;2.30;;
18322;SDS011;9287;49.456;11.064;2023-05-20T00:23:41;3.00;;;2.60;;
18322;SDS011;9287;49.456;11.064;2023-05-20T00:26:09;2.50;;;2.30;;
18322;SDS011;9287;49.456;11.064;2023-05-20T00:28:37;3.57;;;2.60;;
18322;SDS011;9287;49.456;11.064;2023-05-20T00:31:06;2.73;;;2.53;;
18322;SDS011;9287;49.456;11.064;2023-05-20T00:33:43;2.77;;;2.33;;
18322;SDS011;9287;49.456;11.064;2023-05-20T00:36:11;3.17;;;2.87;;
18322;SDS011;9287;49.456;11.064;2023-05-20T00:38:44;2.80;;;2.30;;
18322;SDS011;9287;49.456;11.064;2023-05-20T00:41:14;2.93;;;2.73;;
18322;SDS011;9287;49.456;11.064;2023-05-20T00:43:52;2.87;;;2.67;;
18322;SDS011;9287;49.456;11.064;2023-05-20T00:46:22;2.73;;;2.40;;
18322;SDS011;9287;49.456;11.064;2023-05-20T00:48:54;3.30;;;3.00;;
18322;SDS011;9287;49.456;11.064;2023-05-20T00:51:24;2.70;;;2.50;;
18322;SDS011;9287;49.456;11.064;2023-05-20T00:53:55;2.73;;;2.20;;
18322;SDS011;9287;49.456;11.064;2023-05-20T00:56:24;3.33;;;2.73;;
18322;SDS011;9287;49.456;11.064;2023-05-20T00:58:57;3.33;;;3.03;;
18322;SDS011;9287;49.456;11.064;2023-05-20T01:01:29;3.43;;;2.73;;
18322;SDS011;9287;49.456;11.064;2023-05-20T01:04:01;3.10;;;2.77;;
18322;SDS011;9287;49.456;11.064;2023-05-20T01:06:30;3.13;;;2.93;;
18322;SDS011;9287;49.456;11.064;2023-05-20T01:09:02;3.23;;;2.93;;
18322;SDS011;9287;49.456;11.064;2023-05-20T01:11:33;3.70;;;3.40;;
18322;SDS011;9287;49.456;11.064;2023-05-20T01:14:06;3.10;;;2.80;;
18322;SDS011;9287;49.456;11.064;2023-05-20T01:16:44;3.17;;;2.73;;
18322;SDS011;9287;49.456;11.064;2023-05-20T01:19:20;3.37;;;3.17;;
18322;SDS011;9287;49.456;11.064;2023-05-20T01:21:55;3.13;;;2.93;;
18322;SDS011;9287;49.456;11.064;2023-05-20T01:24:29;3.10;;;2.90;;
18322;SDS011;9287;49.456;11.064;2023-05-20T01:26:59;3.90;;;3.60;;
18322;SDS011;9287;49.456;11.064;2023-05-20T01:29:29;3.93;;;2.90;;
18322;SDS011;9287;49.456;11.064;2023-05-20T01:31:59;4.50;;;3.17;;
18322;SDS011;9287;49.456;11.064;2023-05-20T01:34:30;3.43;;;3.13;;
18322;SDS011;9287;49.456;11.064;2023-05-20T01:37:00;3.70;;;3.40;;
18322;SDS011;9287;49.456;11.064;2023-05-20T01:39:31;3.93;;;2.67;;
18322;SDS011;9287;49.456;11.064;2023-05-20T01:42:07;3.70;;;3.33;;
18322;SDS011;9287;49.456;11.064;2023-05-20T01:44:36;3.17;;;2.93;;
18322;SDS011;9287;49.456;11.064;2023-05-20T01:47:07;3.70;;;3.33;;
18322;SDS011;9287;49.456;11.064;2023-05-20T01:49:40;3.47;;;3.17;;
18322;SDS011;9287;49.456;11.064;2023-05-20T01:52:10;3.50;;;3.20;;
18322;SDS011;9287;49.456;11.064;2023-05-20T01:54:44;3.03;;;2.83;;
18322;SDS011;9287;49.456;11.064;2023-05-20T01:57:16;4.53;;;3.50;;
18322;SDS011;9287;49.456;11.064;2023-05-20T01:59:45;3.43;;;3.00;;
18322;SDS011;9287;49.456;11.064;2023-05-20T02:02:17;3.53;;;3.33;;
18322;SDS011;9287;49.456;11.064;2023-05-20T02:04:47;3.23;;;2.97;;
18322;SDS011;9287;49.456;11.064;2023-05-20T02:07:18;3.80;;;3.53;;
18322;SDS011;9287;49.456;11.064;2023-05-20T02:09:58;4.63;;;3.40;;
18322;SDS011;9287;49.456;11.064;2023-05-20T02:12:26;4.07;;;3.73;;
18322;SDS011;9287;49.456;11.064;2023-05-20T02:14:56;3.63;;;3.33;;
18322;SDS011;9287;49.456;11.064;2023-05-20T02:17:24;4.00;;;3.70;;
18322;SDS011;9287;49.456;11.064;2023-05-20T02:19:54;4.27;;;3.87;;
18322;SDS011;9287;49.456;11.064;2023-05-20T02:22:22;3.80;;;3.50;;
18322;SDS011;9287;49.456;11.064;2023-05-20T02:24:51;4.10;;;3.10;;
18322;SDS011;9287;49.456;11.064;2023-05-20T02:27:25;4.07;;;3.70;;
18322;SDS011;9287;49.456;11.064;2023-05-20T02:29:57;3.50;;;3.27;;
18322;SDS011;9287;49.456;11.064;2023-05-20T02:32:32;4.67;;;4.17;;
18322;SDS011;9287;49.456;11.064;2023-05-20T02:35:02;4.00;;;3.63;;
18322;SDS011;9287;49.456;11.064;2023-05-20T02:37:32;3.90;;;3.60;;
18322;SDS011;9287;49.456;11.064;2023-05-20T02:40:09;4.30;;;4.00;;
18322;SDS011;9287;49.456;11.064;2023-05-20T02:42:43;6.00;;;3.77;;
18322;SDS011;9287;49.456;11.064;2023-05-20T02:45:26;4.43;;;4.03;;
18322;SDS011;9287;49.456;11.064;2023-05-20T02:47:58;4.73;;;4.33;;
18322;SDS011;9287;49.456;11.064;2023-05-20T02:50:29;4.63;;;4.33;;
18322;SDS011;9287;49.456;11.064;2023-05-20T02:53:03;3.97;;;3.67;;
18322;SDS011;9287;49.456;11.064;2023-05-20T02:55:32;4.57;;;4.17;;
18322;SDS011;9287;49.456;11.064;2023-05-20T02:58:05;3.97;;;3.67;;
18322;SDS011;9287;49.456;11.064;2023-05-20T03:00:36;4.90;;;4.50;;
18322;SDS011;9287;49.456;11.064;2023-05-20T03:03:07;5.30;;;4.80;;
18322;SDS011;9287;49.456;11.064;2023-05-20T03:05:36;5.27;;;4.53;;
18322;SDS011;9287;49.456;11.064;2023-05-20T03:08:08;5.83;;;4.77;;
18322;SDS011;9287;49.456;11.064;2023-05-20T03:10:50;6.03;;;5.37;;
18322;SDS011;9287;49.456;11.064;2023-05-20T03:13:23;4.93;;;4.53;;
18322;SDS011;9287;49.456;11.064;2023-05-20T03:15:52;5.17;;;4.67;;
18322;SDS011;9287;49.456;11.064;2023-05-20T03:18:22;5.10;;;4.67;;
18322;SDS011;9287;49.456;11.064;2023-05-20T03:20:52;4.67;;;4.17;;
18322;SDS011;9287;49.456;11.064;2023-05-20T03:23:21;4.93;;;4.63;;
18322;SDS011;9287;49.456;11.064;2023-05-20T03:25:49;5.43;;;4.93;;
18322;SDS011;9287;49.456;11.064;2023-05-20T03:28:24;5.17;;;4.77;;
18322;SDS011;9287;49.456;11.064;2023-05-20T03:31:00;5.80;;;5.33;;
18322;SDS011;9287;49.456;11.064;2023-05-20T03:33:29;5.33;;;4.60;;
18322;SDS011;9287;49.456;11.064;2023-05-20T03:36:00;5.00;;;4.60;;
18322;SDS011;9287;49.456;11.064;2023-05-20T03:38:29;4.50;;;4.20;;
18322;SDS011;9287;49.456;11.064;2023-05-20T03:40:58;4.87;;;4.47;;
18322;SDS011;9287;49.456;11.064;2023-05-20T03:43:28;6.77;;;4.87;;
18322;SDS011;9287;49.456;11.064;2023-05-20T03:45:58;5.27;;;4.87;;
18322;SDS011;9287;49.456;11.064;2023-05-20T03:48:27;5.30;;;4.90;;
18322;SDS011;9287;49.456;11.064;2023-05-20T03:50:55;4.43;;;4.13;;
18322;SDS011;9287;49.456;11.064;2023-05-20T03:53:29;5.70;;;5.07;;
18322;SDS011;9287;49.456;11.064;2023-05-20T03:55:58;5.20;;;4.80;;
18322;SDS011;9287;49.456;11.064;2023-05-20T03:58:29;4.90;;;4.60;;
18322;SDS011;9287;49.456;11.064;2023-05-20T04:01:03;4.70;;;4.33;;
18322;SDS011;9287;49.456;11.064;2023-05-20T04:03:32;5.27;;;4.83;;
18322;SDS011;9287;49.456;11.064;2023-05-20T04:06:03;5.33;;;4.93;;
18322;SDS011;9287;49.456;11.064;2023-05-20T04:08:31;5.80;;;5.23;;
18322;SDS011;9287;49.456;11.064;2023-05-20T04:11:09;7.20;;;5.63;;
18322;SDS011;9287;49.456;11.064;2023-05-20T04:13:40;5.63;;;5.20;;
18322;SDS011;9287;49.456;11.064;2023-05-20T04:16:08;6.67;;;5.40;;
18322;SDS011;9287;49.456;11.064;2023-05-20T04:18:40;5.73;;;5.23;;
18322;SDS011;9287;49.456;11.064;2023-05-20T04:21:13;6.13;;;5.63;;
18322;SDS011;9287;49.456;11.064;2023-05-20T04:23:44;6.90;;;6.20;;
18322;SDS011;9287;49.456;11.064;2023-05-20T04:26:13;6.23;;;5.73;;
18322;SDS011;9287;49.456;11.064;2023-05-20T04:28:45;7.50;;;5.83;;
18322;SDS011;9287;49.456;11.064;2023-05-20T04:31:15;6.80;;;5.43;;
18322;SDS011;9287;49.456;11.064;2023-05-20T04:33:46;6.03;;;5.53;;
18322;SDS011;9287;49.456;11.064;2023-05-20T04:36:14;6.70;;;5.90;;
18322;SDS011;9287;49.456;11.064;2023-05-20T04:38:43;6.07;;;5.57;;
18322;SDS011;9287;49.456;11.064;2023-05-20T04:41:11;6.10;;;5.60;;
18322;SDS011;9287;49.456;11.064;2023-05-20T04:43:42;7.23;;;6.00;;
18322;SDS011;9287;49.456;11.064;2023-05-20T04:46:14;6.00;;;5.50;;
18322;SDS011;9287;49.456;11.064;2023-05-20T04:48:45;6.80;;;6.17;;
18322;SDS011;9287;49.456;11.064;2023-05-20T04:51:25;6.80;;;6.20;;
18322;SDS011;9287;49.456;11.064;2023-05-20T04:53:56;6.30;;;5.70;;
18322;SDS011;9287;49.456;11.064;2023-05-20T04:56:25;6.77;;;6.17;;
18322;SDS011;9287;49.456;11.064;2023-05-20T04:58:54;6.90;;;5.90;;
18322;SDS011;9287;49.456;11.064;2023-05-20T05:01:25;6.93;;;6.13;;
18322;SDS011;9287;49.456;11.064;2023-05-20T05:03:55;7.27;;;6.67;;
18322;SDS011;9287;49.456;11.064;2023-05-20T05:06:31;6.40;;;5.90;;
18322;SDS011;9287;49.456;11.064;2023-05-20T05:09:03;6.60;;;6.00;;
18322;SDS011;9287;49.456;11.064;2023-05-20T05:11:33;7.30;;;6.60;;
18322;SDS011;9287;49.456;11.064;2023-05-20T05:14:03;7.00;;;6.30;;
18322;SDS011;9287;49.456;11.064;2023-05-20T05:16:34;7.17;;;6.50;;
18322;SDS011;9287;49.456;11.064;2023-05-20T05:19:08;6.87;;;6.13;;
18322;SDS011;9287;49.456;11.064;2023-05-20T05:21:37;8.07;;;7.20;;
18322;SDS011;9287;49.456;11.064;2023-05-20T05:24:12;7.50;;;6.90;;
18322;SDS011;9287;49.456;11.064;2023-05-20T05:26:42;7.13;;;6.43;;
18322;SDS011;9287;49.456;11.064;2023-05-20T05:29:10;6.97;;;6.27;;
18322;SDS011;9287;49.456;11.064;2023-05-20T05:31:42;8.10;;;7.30;;
18322;SDS011;9287;49.456;11.064;2023-05-20T05:34:11;6.83;;;6.23;;
18322;SDS011;9287;49.456;11.064;2023-05-20T05:36:42;7.17;;;6.40;;
18322;SDS011;9287;49.456;11.064;2023-05-20T05:39:10;7.67;;;7.03;;
18322;SDS011;9287;49.456;11.064;2023-05-20T05:41:38;6.87;;;6.27;;
18322;SDS011;9287;49.456;11.064;2023-05-20T05:44:06;8.00;;;7.20;;
18322;SDS011;9287;49.456;11.064;2023-05-20T05:46:34;7.87;;;7.20;;
18322;SDS011;9287;49.456;11.064;2023-05-20T05:49:04;8.20;;;7.50;;
18322;SDS011;9287;49.456;11.064;2023-05-20T05:51:31;7.90;;;7.17;;
18322;SDS011;9287;49.456;11.064;2023-05-20T05:53:59;6.70;;;6.10;;
18322;SDS011;9287;49.456;11.064;2023-05-20T05:56:27;7.80;;;6.30;;
18322;SDS011;9287;49.456;11.064;2023-05-20T05:58:55;7.30;;;6.67;;
18322;SDS011;9287;49.456;11.064;2023-05-20T06:01:23;7.13;;;6.43;;
18322;SDS011;9287;49.456;11.064;2023-05-20T06:03:51;7.47;;;6.77;;
18322;SDS011;9287;49.456;11.064;2023-05-20T06:06:20;7.90;;;6.70;;
18322;SDS011;9287;49.456;11.064;2023-05-20T06:08:48;7.43;;;6.73;;
18322;SDS011;9287;49.456;11.064;2023-05-20T06:11:16;7.37;;;6.67;;
18322;SDS011;9287;49.456;11.064;2023-05-20T06:13:47;7.73;;;7.03;;
18322;SDS011;9287;49.456;11.064;2023-05-20T06:16:14;6.90;;;6.30;;
18322;SDS011;9287;49.456;11.064;2023-05-20T06:18:44;6.63;;;6.00;;
18322;SDS011;9287;49.456;11.064;2023-05-20T06:21:15;7.70;;;7.00;;
18322;SDS011;9287;49.456;11.064;2023-05-20T06:23:45;6.17;;;5.63;;
18322;SDS011;9287;49.456;11.064;2023-05-20T06:26:12;6.53;;;6.03;;
18322;SDS011;9287;49.456;11.064;2023-05-20T06:28:40;6.97;;;6.40;;
18322;SDS011;9287;49.456;11.064;2023-05-20T06:31:08;7.20;;;6.57;;
18322;SDS011;9287;49.456;11.064;2023-05-20T06:33:36;9.27;;;6.07;;
18322;SDS011;9287;49.456;11.064;2023-05-20T06:36:05;6.07;;;5.53;;
18322;SDS011;9287;49.456;11.064;2023-05-20T06:38:33;7.33;;;6.57;;
18322;SDS011;9287;49.456;11.064;2023-05-20T06:41:03;6.90;;;6.33;;
18322;SDS011;9287;49.456;11.064;2023-05-20T06:43:31;9.50;;;6.53;;
18322;SDS011;9287;49.456;11.064;2023-05-20T06:45:59;6.23;;;5.67;;
18322;SDS011;9287;49.456;11.064;2023-05-20T06:48:27;6.60;;;6.00;;
18322;SDS011;9287;49.456;11.064;2023-05-20T06:50:55;7.00;;;6.30;;
18322;SDS011;9287;49.456;11.064;2023-05-20T06:53:23;7.53;;;6.27;;
18322;SDS011;9287;49.456;11.064;2023-05-20T06:55:52;7.87;;;6.10;;
18322;SDS011;9287;49.456;11.064;2023-05-20T06:58:22;6.37;;;5.77;;
18322;SDS011;9287;49.456;11.064;2023-05-20T07:00:49;6.80;;;6.30;;
18322;SDS011;9287;49.456;11.064;2023-05-20T07:03:17;7.43;;;6.13;;
18322;SDS011;9287;49.456;11.064;2023-05-20T07:05:45;7.03;;;6.43;;
18322;SDS011;9287;49.456;11.064;2023-05-20T07:08:13;7.17;;;6.07;;
18322;SDS011;9287;49.456;11.064;2023-05-20T07:10:41;5.80;;;5.30;;
18322;SDS011;9287;49.456;11.064;2023-05-20T07:13:08;6.90;;;6.20;;
18322;SDS011;9287;49.456;11.064;2023-05-20T07:15:38;6.28;;;5.68;;
18322;SDS011;9287;49.456;11.064;2023-05-20T07:18:06;5.68;;;5.13;;
18322;SDS011;9287;49.456;11.064;2023-05-20T07:20:33;6.00;;;4.82;;
18322;SDS011;9287;49.456;11.064;2023-05-20T07:23:01;5.93;;;5.28;;
18322;SDS011;9287;49.456;11.064;2023-05-20T07:25:29;4.68;;;4.38;;
18322;SDS011;9287;49.456;11.064;2023-05-20T07:27:57;4.78;;;4.32;;
18322;SDS011;9287;49.456;11.064;2023-05-20T07:30:25;4.78;;;4.47;;
18322;SDS011;9287;49.456;11.064;2023-05-20T07:32:55;6.72;;;4.85;;
18322;SDS011;9287;49.456;11.064;2023-05-20T07:35:23;5.22;;;4.82;;
18322;SDS011;9287;49.456;11.064;2023-05-20T07:37:50;4.70;;;4.30;;
18322;SDS011;9287;49.456;11.064;2023-05-20T07:40:18;5.80;;;5.40;;
18322;SDS011;9287;49.456;11.064;2023-05-20T07:42:46;5.72;;;5.13;;
18322;SDS011;9287;49.456;11.064;2023-05-20T07:45:14;5.13;;;4.72;;
18322;SDS011;9287;49.456;11.064;2023-05-20T07:47:42;5.78;;;5.20;;
18322;SDS011;9287;49.456;11.064;2023-05-20T07:50:12;4.97;;;4.57;;
18322;SDS011;9287;49.456;11.064;2023-05-20T07:52:39;5.05;;;4.65;;
18322;SDS011;9287;49.456;11.064;2023-05-20T07:55:21;4.90;;;4.60;;
18322;SDS011;9287;49.456;11.064;2023-05-20T07:57:49;4.55;;;4.25;;
18322;SDS011;9287;49.456;11.064;2023-05-20T08:00:17;5.20;;;4.80;;
18322;SDS011;9287;49.456;11.064;2023-05-20T08:02:45;5.00;;;4.47;;
18322;SDS011;9287;49.456;11.064;2023-05-20T08:05:15;7.32;;;5.22;;
18322;SDS011;9287;49.456;11.064;2023-05-20T08:07:43;6.35;;;4.93;;
18322;SDS011;9287;49.456;11.064;2023-05-20T08:10:11;5.15;;;4.43;;
18322;SDS011;9287;49.456;11.064;2023-05-20T08:12:38;5.15;;;4.75;;
18322;SDS011;9287;49.456;11.064;2023-05-20T08:15:07;6.45;;;4.72;;
18322;SDS011;9287;49.456;11.064;2023-05-20T08:17:35;4.70;;;4.40;;
18322;SDS011;9287;49.456;11.064;2023-05-20T08:20:04;5.35;;;4.95;;
18322;SDS011;9287;49.456;11.064;2023-05-20T08:22:36;5.75;;;5.35;;
18322;SDS011;9287;49.456;11.064;2023-05-20T08:25:06;5.15;;;4.72;;
18322;SDS011;9287;49.456;11.064;2023-05-20T08:27:36;5.53;;;5.10;;
18322;SDS011;9287;49.456;11.064;2023-05-20T08:30:04;5.13;;;4.72;;
18322;SDS011;9287;49.456;11.064;2023-05-20T08:32:35;4.32;;;4.03;;
18322;SDS011;9287;49.456;11.064;2023-05-20T08:35:03;4.50;;;4.20;;
18322;SDS011;9287;49.456;11.064;2023-05-20T08:37:31;5.38;;;4.88;;
18322;SDS011;9287;49.456;11.064;2023-05-20T08:40:01;4.60;;;4.20;;
18322;SDS011;9287;49.456;11.064;2023-05-20T08:42:30;4.63;;;4.32;;
18322;SDS011;9287;49.456;11.064;2023-05-20T08:44:58;7.10;;;5.05;;
18322;SDS011;9287;49.456;11.064;2023-05-20T08:47:27;4.35;;;3.95;;
18322;SDS011;9287;49.456;11.064;2023-05-20T08:49:56;4.40;;;4.10;;
18322;SDS011;9287;49.456;11.064;2023-05-20T08:52:24;5.43;;;4.70;;
18322;SDS011;9287;49.456;11.064;2023-05-20T08:54:53;6.07;;;4.82;;
18322;SDS011;9287;49.456;11.064;2023-05-20T08:57:24;4.95;;;4.55;;
18322;SDS011;9287;49.456;11.064;2023-05-20T08:59:54;4.80;;;4.50;;
18322;SDS011;9287;49.456;11.064;2023-05-20T09:02:22;7.03;;;5.00;;
18322;SDS011;9287;49.456;11.064;2023-05-20T09:04:50;5.22;;;4.82;;
18322;SDS011;9287;49.456;11.064;2023-05-20T09:07:25;5.88;;;4.25;;
18322;SDS011;9287;49.456;11.064;2023-05-20T09:09:53;4.43;;;4.13;;
18322;SDS011;9287;49.456;11.064;2023-05-20T09:12:21;4.93;;;4.60;;
18322;SDS011;9287;49.456;11.064;2023-05-20T09:14:50;4.90;;;4.50;;
18322;SDS011;9287;49.456;11.064;2023-05-20T09:17:19;4.53;;;4.13;;
18322;SDS011;9287;49.456;11.064;2023-05-20T09:19:48;5.30;;;4.80;;
18322;SDS011;9287;49.456;11.064;2023-05-20T09:22:20;5.03;;;4.57;;
18322;SDS011;9287;49.456;11.064;2023-05-20T09:24:48;5.55;;;5.05;;
18322;SDS011;9287;49.456;11.064;2023-05-20T09:27:17;5.78;;;4.65;;
18322;SDS011;9287;49.456;11.064;2023-05-20T09:29:46;5.25;;;4.85;;
18322;SDS011;9287;49.456;11.064;2023-05-20T09:32:16;4.70;;;4.30;;
18322;SDS011;9287;49.456;11.064;2023-05-20T09:34:49;5.57;;;5.07;;
18322;SDS011;9287;49.456;11.064;2023-05-20T09:37:17;4.68;;;4.38;;
18322;SDS011;9287;49.456;11.064;2023-05-20T09:39:47;4.88;;;4.50;;
18322;SDS011;9287;49.456;11.064;2023-05-20T09:42:25;5.38;;;4.88;;
18322;SDS011;9287;49.456;11.064;2023-05-20T09:44:54;5.60;;;4.95;;
18322;SDS011;9287;49.456;11.064;2023-05-20T09:47:24;4.75;;;4.45;;
18322;SDS011;9287;49.456;11.064;2023-05-20T09:49:54;5.88;;;5.25;;
18322;SDS011;9287;49.456;11.064;2023-05-20T09:52:23;5.43;;;5.03;;
18322;SDS011;9287;49.456;11.064;2023-05-20T09:54:53;5.63;;;5.20;;
18322;SDS011;9287;49.456;11.064;2023-05-20T09:57:24;5.95;;;5.35;;
18322;SDS011;9287;49.456;11.064;2023-05-20T09:59:52;7.50;;;5.65;;
18322;SDS011;9287;49.456;11.064;2023-05-20T10:02:20;6.35;;;5.85;;
18322;SDS011;9287;49.456;11.064;2023-05-20T10:04:50;5.88;;;4.70;;
18322;SDS011;9287;49.456;11.064;2023-05-20T10:07:23;7.80;;;5.60;;
18322;SDS011;9287;49.456;11.064;2023-05-20T10:10:11;5.10;;;4.70;;
18322;SDS011;9287;49.456;11.064;2023-05-20T10:12:49;5.35;;;4.90;;
18322;SDS011;9287;49.456;11.064;2023-05-20T10:15:23;7.25;;;6.13;;
18322;SDS011;9287;49.456;11.064;2023-05-20T10:18:03;6.03;;;5.63;;
18322;SDS011;9287;49.456;11.064;2023-05-20T10:20:47;9.50;;;5.80;;
18322;SDS011;9287;49.456;11.064;2023-05-20T10:23:19;5.43;;;5.00;;
18322;SDS011;9287;49.456;11.064;2023-05-20T10:25:51;6.13;;;5.63;;
18322;SDS011;9287;49.456;11.064;2023-05-20T10:28:29;6.45;;;5.95;;
18322;SDS011;9287;49.456;11.064;2023-05-20T10:30:59;6.43;;;5.78;;
18322;SDS011;9287;49.456;11.064;2023-05-20T10:33:27;6.03;;;5.30;;
18322;SDS011;9287;49.456;11.064;2023-05-20T10:35:58;5.18;;;4.78;;
18322;SDS011;9287;49.456;11.064;2023-05-20T10:38:26;6.05;;;5.43;;
18322;SDS011;9287;49.456;11.064;2023-05-20T10:40:54;4.68;;;4.28;;
18322;SDS011;9287;49.456;11.064;2023-05-20T10:43:25;6.55;;;5.00;;
18322;SDS011;9287;49.456;11.064;2023-05-20T10:45:54;4.97;;;4.55;;
18322;SDS011;9287;49.456;11.064;2023-05-20T10:48:25;6.03;;;5.43;;
18322;SDS011;9287;49.456;11.064;2023-05-20T10:50:55;5.30;;;4.88;;
18322;SDS011;9287;49.456;11.064;2023-05-20T10:53:26;6.38;;;5.78;;
18322;SDS011;9287;49.456;11.064;2023-05-20T10:55:59;5.85;;;5.05;;
18322;SDS011;9287;49.456;11.064;2023-05-20T10:58:34;6.05;;;5.55;;
18322;SDS011;9287;49.456;11.064;2023-05-20T11:01:03;6.32;;;5.75;;
18322;SDS011;9287;49.456;11.064;2023-05-20T11:03:31;6.45;;;5.85;;
18322;SDS011;9287;49.456;11.064;2023-05-20T11:06:01;5.95;;;5.45;;
18322;SDS011;9287;49.456;11.064;2023-05-20T11:08:39;5.20;;;4.80;;
18322;SDS011;9287;49.456;11.064;2023-05-20T11:11:06;5.82;;;5.32;;
18322;SDS011;9287;49.456;11.064;2023-05-20T11:13:34;6.22;;;5.63;;
18322;SDS011;9287;49.456;11.064;2023-05-20T11:16:03;5.82;;;5.35;;
18322;SDS011;9287;49.456;11.064;2023-05-20T11:18:32;6.78;;;5.93;;
18322;SDS011;9287;49.456;11.064;2023-05-20T11:21:00;6.57;;;6.07;;
18322;SDS011;9287;49.456;11.064;2023-05-20T11:23:29;5.85;;;5.13;;
18322;SDS011;9287;49.456;11.064;2023-05-20T11:25:58;5.93;;;5.35;;
18322;SDS011;9287;49.456;11.064;2023-05-20T11:28:26;6.70;;;6.10;;
18322;SDS011;9287;49.456;11.064;2023-05-20T11:30:54;6.95;;;6.35;;
18322;SDS011;9287;49.456;11.064;2023-05-20T11:33:24;6.05;;;5.55;;
18322;SDS011;9287;49.456;11.064;2023-05-20T11:35:52;7.13;;;6.05;;
18322;SDS011;9287;49.456;11.064;2023-05-20T11:38:21;7.95;;;6.43;;
18322;SDS011;9287;49.456;11.064;2023-05-20T11:40:50;6.68;;;6.15;;
18322;SDS011;9287;49.456;11.064;2023-05-20T11:43:22;6.13;;;5.57;;
18322;SDS011;9287;49.456;11.064;2023-05-20T11:45:53;6.57;;;6.00;;
18322;SDS011;9287;49.456;11.064;2023-05-20T11:48:25;6.60;;;6.00;;
18322;SDS011;9287;49.456;11.064;2023-05-20T11:50:54;8.45;;;5.40;;
18322;SDS011;9287;49.456;11.064;2023-05-20T11:53:26;7.97;;;5.80;;
18322;SDS011;9287;49.456;11.064;2023-05-20T11:55:55;7.75;;;6.47;;
18322;SDS011;9287;49.456;11.064;2023-05-20T11:58:25;6.70;;;6.20;;
18322;SDS011;9287;49.456;11.064;2023-05-20T12:00:53;7.00;;;6.25;;
18322;SDS011;9287;49.456;11.064;2023-05-20T12:03:34;6.75;;;6.18;;
18322;SDS011;9287;49.456;11.064;2023-05-20T12:06:02;6.85;;;6.25;;
18322;SDS011;9287;49.456;11.064;2023-05-20T12:08:30;6.65;;;6.15;;
18322;SDS011;9287;49.456;11.064;2023-05-20T12:10:58;6.88;;;6.28;;
18322;SDS011;9287;49.456;11.064;2023-05-20T12:13:27;6.47;;;5.97;;
18322;SDS011;9287;49.456;11.064;2023-05-20T12:15:55;7.22;;;6.47;;
18322;SDS011;9287;49.456;11.064;2023-05-20T12:18:23;7.53;;;6.90;;
18322;SDS011;9287;49.456;11.064;2023-05-20T12:20:51;9.50;;;6.18;;
18322;SDS011;9287;49.456;11.064;2023-05-20T12:23:19;7.68;;;6.72;;
18322;SDS011;9287;49.456;11.064;2023-05-20T12:25:47;7.53;;;6.72;;
18322;SDS011;9287;49.456;11.064;2023-05-20T12:28:16;7.75;;;7.13;;
18322;SDS011;9287;49.456;11.064;2023-05-20T12:30:45;9.55;;;7.35;;
18322;SDS011;9287;49.456;11.064;2023-05-20T12:33:13;7.18;;;6.68;;
18322;SDS011;9287;49.456;11.064;2023-05-20T12:35:42;9.57;;;8.07;;
18322;SDS011;9287;49.456;11.064;2023-05-20T12:38:11;7.53;;;6.80;;
18322;SDS011;9287;49.456;11.064;2023-05-20T12:40:39;7.22;;;6.55;;
18322;SDS011;9287;49.456;11.064;2023-05-20T12:43:07;7.60;;;6.88;;
18322;SDS011;9287;49.456;11.064;2023-05-20T12:45:35;7.50;;;6.80;;
18322;SDS011;9287;49.456;11.064;2023-05-20T12:48:04;7.65;;;6.88;;
18322;SDS011;9287;49.456;11.064;2023-05-20T12:50:33;9.18;;;6.85;;
18322;SDS011;9287;49.456;11.064;2023-05-20T12:53:01;7.13;;;6.55;;
18322;SDS011;9287;49.456;11.064;2023-05-20T12:55:29;6.97;;;6.30;;
18322;SDS011;9287;49.456;11.064;2023-05-20T12:57:57;7.13;;;6.25;;
18322;SDS011;9287;49.456;11.064;2023-05-20T13:00:25;6.68;;;6.05;;
18322;SDS011;9287;49.456;11.064;2023-05-20T13:02:53;7.25;;;6.65;;
18322;SDS011;9287;49.456;11.064;2023-05-20T13:05:22;7.30;;;6.60;;
18322;SDS011;9287;49.456;11.064;2023-05-20T13:07:50;8.52;;;6.40;;
18322;SDS011;9287;49.456;11.064;2023-05-20T13:10:17;7.28;;;6.68;;
18322;SDS011;9287;49.456;11.064;2023-05-20T13:12:45;7.50;;;6.72;;
18322;SDS011;9287;49.456;11.064;2023-05-20T13:15:13;7.82;;;7.13;;
18322;SDS011;9287;49.456;11.064;2023-05-20T13:17:41;8.20;;;6.82;;
18322;SDS011;9287;49.456;11.064;2023-05-20T13:20:09;7.95;;;7.15;;
18322;SDS011;9287;49.456;11.064;2023-05-20T13:22:39;7.93;;;7.00;;
18322;SDS011;9287;49.456;11.064;2023-05-20T13:25:07;7.22;;;6.63;;
18322;SDS011;9287;49.456;11.064;2023-05-20T13:27:36;7.35;;;6.65;;
18322;SDS011;9287;49.456;11.064;2023-05-20T13:30:04;6.90;;;6.35;;
18322;SDS011;9287;49.456;11.064;2023-05-20T13:32:32;7.47;;;6.78;;
18322;SDS011;9287;49.456;11.064;2023-05-20T13:35:00;6.80;;;6.18;;
18322;SDS011;9287;49.456;11.064;2023-05-20T13:37:28;7.10;;;6.60;;
18322;SDS011;9287;49.456;11.064;2023-05-20T13:39:58;8.13;;;6.78;;
18322;SDS011;9287;49.456;11.064;2023-05-20T13:42:26;8.93;;;6.95;;
18322;SDS011;9287;49.456;11.064;2023-05-20T13:44:54;7.03;;;6.32;;
18322;SDS011;9287;49.456;11.064;2023-05-20T13:47:22;6.60;;;6.03;;
18322;SDS011;9287;49.456;11.064;2023-05-20T13:49:50;8.18;;;6.78;;
18322;SDS011;9287;49.456;11.064;2023-05-20T13:52:18;6.97;;;6.25;;
18322;SDS011;9287;49.456;11.064;2023-05-20T13:54:46;6.22;;;5.72;;
18322;SDS011;9287;49.456;11.064;2023-05-20T13:57:16;6.25;;;5.75;;
18322;SDS011;9287;49.456;11.064;2023-05-20T13:59:44;5.93;;;5.43;;
18322;SDS011;9287;49.456;11.064;2023-05-20T14:02:12;6.10;;;5.60;;
18322;SDS011;9287;49.456;11.064;2023-05-20T14:04:40;6.03;;;5.53;;
18322;SDS011;9287;49.456;11.064;2023-05-20T14:07:10;5.55;;;5.18;;
18322;SDS011;9287;49.456;11.064;2023-05-20T14:09:38;6.50;;;5.97;;
18322;SDS011;9287;49.456;11.064;2023-05-20T14:12:06;6.00;;;5.55;;
18322;SDS011;9287;49.456;11.064;2023-05-20T14:14:35;6.43;;;5.65;;
18322;SDS011;9287;49.456;11.064;2023-05-20T14:17:04;6.15;;;5.65;;
18322;SDS011;9287;49.456;11.064;2023-05-20T14:19:33;6.20;;;5.53;;
18322;SDS011;9287;49.456;11.064;2023-05-20T14:22:01;8.00;;;5.28;;
18322;SDS011;9287;49.456;11.064;2023-05-20T14:24:29;6.25;;;5.65;;
18322;SDS011;9287;49.456;11.064;2023-05-20T14:26:57;6.63;;;5.75;;
18322;SDS011;9287;49.456;11.064;2023-05-20T14:29:24;6.13;;;5.60;;
18322;SDS011;9287;49.456;11.064;2023-05-20T14:31:54;5.90;;;5.18;;
18322;SDS011;9287;49.456;11.064;2023-05-20T14:34:22;7.75;;;5.65;;
18322;SDS011;9287;49.456;11.064;2023-05-20T14:36:50;8.35;;;5.47;;
18322;SDS011;9287;49.456;11.064;2023-05-20T14:39:18;7.45;;;5.63;;
18322;SDS011;9287;49.456;11.064;2023-05-20T14:41:46;6.55;;;5.95;;
18322;SDS011;9287;49.456;11.064;2023-05-20T14:44:14;7.00;;;5.30;;
18322;SDS011;9287;49.456;11.064;2023-05-20T14:46:42;5.95;;;5.00;;
18322;SDS011;9287;49.456;11.064;2023-05-20T14:49:13;6.32;;;5.25;;
18322;SDS011;9287;49.456;11.064;2023-05-20T14:51:41;6.05;;;5.40;;
18322;SDS011;9287;49.456;11.064;2023-05-20T14:54:09;5.50;;;5.00;;
18322;SDS011;9287;49.456;11.064;2023-05-20T14:56:37;5.47;;;5.07;;
18322;SDS011;9287;49.456;11.064;2023-05-20T14:59:05;5.75;;;5.20;;
18322;SDS011;9287;49.456;11.064;2023-05-20T15:01:34;7.28;;;4.88;;
18322;SDS011;9287;49.456;11.064;2023-05-20T15:04:03;4.43;;;4.00;;